createdAt,value
2022-12-16T07:13:04.050Z,94116.59
2022-12-16T07:15:49.432Z,94120.16
2022-12-16T07:18:34.577Z,94118.16
2022-12-16T07:21:19.375Z,94118.59
2022-12-16T07:24:04.634Z,94120.09
2022-12-16T07:26:49.607Z,94121.94
2022-12-16T07:29:34.857Z,94139.56
2022-12-16T07:32:19.700Z,94144.69
2022-12-16T07:35:05.119Z,94150.78
2022-12-16T07:37:50.026Z,94159.88
2022-12-16T07:40:35.223Z,94164.25
2022-12-16T07:43:20.285Z,94170.81
2022-12-16T07:46:05.536Z,94165.69
2022-12-16T07:48:50.692Z,94173.25
2022-12-16T07:51:36.191Z,94180.34
2022-12-16T07:54:38.120Z,94179.50
2022-12-16T07:57:23.364Z,94183.19
2022-12-16T08:00:08.637Z,94188.78
2022-12-16T08:02:59.783Z,94187.97
2022-12-16T08:05:44.987Z,94198.22
2022-12-16T08:08:30.166Z,94200.16
2022-12-16T08:11:15.478Z,94200.47
2022-12-16T08:14:00.778Z,94201.72
2022-12-16T08:16:46.237Z,94203.06
2022-12-16T08:19:31.504Z,94208.63
2022-12-16T08:22:16.687Z,94212.94
2022-12-16T08:25:02.058Z,94218.16
2022-12-16T08:27:47.361Z,94217.22
2022-12-16T08:30:32.514Z,94222.66
2022-12-16T08:33:30.876Z,94236.88
2022-12-16T08:36:17.605Z,94247.22
2022-12-16T08:39:02.664Z,94241.56
2022-12-16T08:41:48.025Z,94243.03
2022-12-16T08:44:33.265Z,94252.16
2022-12-16T08:47:18.576Z,94251.31
2022-12-16T08:50:03.541Z,94250.31
2022-12-16T08:52:49.220Z,94249.59
2022-12-16T08:55:34.763Z,94259.16
2022-12-16T08:58:19.947Z,94261.28
2022-12-16T09:01:07.733Z,94264.88
2022-12-16T09:03:54.571Z,94261.91
2022-12-16T09:06:40.899Z,94270.25
2022-12-16T09:09:29.572Z,94275.38
2022-12-16T09:12:14.800Z,94272.94
2022-12-16T09:15:00.116Z,94279.63
2022-12-16T09:17:45.403Z,94282.88
2022-12-16T09:20:30.424Z,94283.16
2022-12-16T09:23:15.551Z,94300.38
2022-12-16T09:26:00.866Z,94306.69
2022-12-16T09:28:46.029Z,94308.44
2022-12-16T09:31:31.340Z,94309.63
2022-12-16T09:34:16.606Z,94311.41
2022-12-16T09:37:02.109Z,94319.56
2022-12-16T09:39:47.160Z,94315.53
2022-12-16T09:42:44.002Z,94328.28
2022-12-16T09:45:57.225Z,94330.22
2022-12-16T09:48:56.076Z,94332.50
2022-12-16T09:51:43.315Z,94330.19
2022-12-16T09:54:32.283Z,94333.53
2022-12-16T09:57:20.879Z,94336.00
2022-12-16T10:00:14.516Z,94337.63
2022-12-16T10:03:06.584Z,94344.66
2022-12-16T10:06:25.872Z,94347.63
2022-12-16T10:09:42.390Z,94340.13
2022-12-16T10:12:40.254Z,94337.03
2022-12-16T10:15:52.188Z,94347.75
2022-12-16T10:19:09.940Z,94359.28
2022-12-16T10:22:36.673Z,94359.81
2022-12-16T10:25:31.998Z,94370.69
2022-12-16T10:28:34.876Z,94372.88
2022-12-16T10:31:28.093Z,94364.94
2022-12-16T10:34:16.341Z,94369.03
2022-12-16T10:37:07.362Z,94369.31
2022-12-16T10:39:58.420Z,94372.16
2022-12-16T10:42:54.627Z,94371.34
2022-12-16T10:45:48.139Z,94377.38
2022-12-16T10:48:42.115Z,94361.78
2022-12-16T10:51:33.678Z,94373.13
2022-12-16T10:54:47.111Z,94370.38
2022-12-16T10:57:42.486Z,94371.91
2022-12-16T11:00:59.493Z,94377.34
2022-12-16T11:03:50.239Z,94376.25
2022-12-16T11:06:47.594Z,94381.03
2022-12-16T11:09:49.529Z,94390.91
2022-12-16T11:12:47.147Z,94389.09
2022-12-16T11:15:46.579Z,94399.25
2022-12-16T11:18:40.508Z,94387.75
2022-12-16T11:21:34.332Z,94394.47
2022-12-16T11:24:31.954Z,94396.66
2022-12-16T11:27:19.881Z,94394.88
2022-12-16T11:30:13.893Z,94398.53
2022-12-16T11:33:05.335Z,94404.25
2022-12-16T11:35:53.069Z,94400.56
2022-12-16T11:38:47.405Z,94397.56
2022-12-16T11:41:38.788Z,94401.66
2022-12-16T11:44:26.429Z,94399.84
2022-12-16T11:47:11.532Z,94392.91
2022-12-16T11:49:56.614Z,94387.72
2022-12-16T11:52:42.157Z,94393.69
2022-12-16T11:59:08.984Z,94405.03
2022-12-16T12:02:16.992Z,94415.72
2022-12-16T12:05:02.793Z,94416.13
2022-12-16T12:08:07.645Z,94419.13
2022-12-16T12:11:15.821Z,94412.97
2022-12-16T12:14:30.433Z,94419.66
2022-12-16T12:17:37.652Z,94406.41
2022-12-16T12:20:41.289Z,94420.63
2022-12-16T12:23:29.234Z,94426.63
2022-12-16T12:26:32.520Z,94419.56
2022-12-16T12:29:57.442Z,94426.38
2022-12-16T12:32:54.991Z,94431.94
2022-12-16T12:36:07.185Z,94428.41
2022-12-16T12:39:16.447Z,94434.53
2022-12-16T12:42:21.574Z,94435.63
2022-12-16T12:45:18.995Z,94439.31
2022-12-16T12:48:22.668Z,94446.25
2022-12-16T12:51:23.804Z,94441.78
2022-12-16T12:54:18.010Z,94451.03
2022-12-16T12:57:07.844Z,94448.84
2022-12-16T13:00:12.784Z,94451.19
2022-12-16T13:03:21.621Z,94459.78
2022-12-16T13:06:07.950Z,94457.19
2022-12-16T13:09:05.147Z,94459.78
2022-12-16T13:11:50.500Z,94462.22
2022-12-16T13:14:51.554Z,94475.75
2022-12-16T13:17:38.637Z,94468.25
2022-12-16T13:20:53.745Z,94473.41
2022-12-16T13:23:48.039Z,94475.59
2022-12-16T13:26:38.369Z,94476.13
2022-12-16T13:29:45.634Z,94488.00
2022-12-16T13:32:30.772Z,94491.69
2022-12-16T13:35:23.745Z,94497.59
2022-12-16T13:38:15.370Z,94496.91
2022-12-16T13:41:18.802Z,94507.25
2022-12-16T13:44:15.203Z,94509.31
2022-12-16T13:47:03.728Z,94522.00
2022-12-16T13:50:25.986Z,94522.13
2022-12-16T13:53:17.222Z,94523.94
2022-12-16T13:56:17.806Z,94529.38
2022-12-16T13:59:09.329Z,94533.34
2022-12-16T14:02:15.564Z,94539.47
2022-12-16T14:05:06.473Z,94542.19
2022-12-16T14:07:53.121Z,94543.00
2022-12-16T14:10:44.200Z,94546.53
2022-12-16T14:13:50.465Z,94552.72
2022-12-16T14:16:57.890Z,94562.25
2022-12-16T14:20:08.062Z,94570.44
2022-12-16T14:23:32.495Z,94571.25
2022-12-16T14:26:18.776Z,94584.66
2022-12-16T14:29:06.174Z,94584.38
2022-12-16T14:32:17.192Z,94589.16
2022-12-16T14:35:02.383Z,94596.97
2022-12-16T14:37:56.749Z,94603.19
2022-12-16T14:40:44.043Z,94601.97
2022-12-16T14:43:35.141Z,94612.34
2022-12-16T14:46:21.106Z,94621.53
2022-12-16T14:49:07.963Z,94623.75
2022-12-16T14:52:06.314Z,94628.25
2022-12-16T14:54:57.857Z,94634.81
2022-12-16T14:57:46.220Z,94637.41
2022-12-16T15:00:42.697Z,94639.38
2022-12-16T15:03:36.648Z,94641.59
2022-12-16T15:06:24.751Z,94643.31
2022-12-16T15:09:14.960Z,94648.88
2022-12-16T15:12:02.824Z,94656.13
2022-12-16T15:14:52.060Z,94650.84
2022-12-16T15:17:45.523Z,94658.44
2022-12-16T15:20:44.097Z,94661.53
2022-12-16T15:23:41.211Z,94662.72
2022-12-16T15:26:27.445Z,94663.63
2022-12-16T15:29:12.578Z,94677.16
2022-12-16T15:32:03.110Z,94677.34
2022-12-16T15:34:57.560Z,94679.78
2022-12-16T15:37:48.668Z,94681.53
2022-12-16T15:40:48.676Z,94696.13
2022-12-16T15:43:47.424Z,94689.16
2022-12-16T15:46:45.235Z,94698.94
2022-12-16T15:49:53.218Z,94709.69
2022-12-16T15:52:57.991Z,94712.91
2022-12-16T15:56:04.529Z,94718.72
2022-12-16T15:58:54.087Z,94720.09
2022-12-16T16:01:45.624Z,94725.31
2022-12-16T16:04:42.848Z,94724.81
